Time;durP1;ratioP1;P1;durP2;ratioP2;P2;SDS_P1;SDS_P2;PMS_P1;PMS_P2;Temp;Humidity;BMP_temperature;BMP_pressure;BME280_temperature;BME280_humidity;BME280_pressure;Samples;Min_cycle;Max_cycle;Signal;HPM_P1;HPM_P2
2023/12/18 00:01:27;;;;;;;7.45;5.18;;;;;;;7.26;77.11;103325.44;4973145;28;20508;-84
2023/12/18 00:03:54;;;;;;;8.75;5.38;;;;;;;7.33;77.15;103335.75;4973680;28;20038;-84
2023/12/18 00:06:20;;;;;;;7.65;5.35;;;;;;;7.14;77.12;103299.97;4974551;28;20439;-85
2023/12/18 00:08:46;;;;;;;8.18;5.45;;;;;;;7.17;77.15;103314.06;4982700;28;20037;-86
2023/12/18 00:11:14;;;;;;;9.48;5.40;;;;;;;7.29;77.06;103326.69;4991987;28;20030;-85
2023/12/18 00:13:40;;;;;;;8.55;5.45;;;;;;;7.05;77.17;103285.06;4972571;28;20064;-85
2023/12/18 00:16:06;;;;;;;8.23;5.45;;;;;;;7.06;77.24;103292.09;4978673;28;20497;-86
2023/12/18 00:18:33;;;;;;;;;;;;;;;7.51;77.44;103361.16;4976249;28;20037;-86
2023/12/18 00:20:59;;;;;;;8.05;5.50;;;;;;;7.33;77.15;103333.16;4991807;28;19972;-87
2023/12/18 00:23:34;;;;;;;8.52;5.70;;;;;;;7.26;77.39;103325.44;4972227;28;20034;-85
2023/12/18 00:26:01;;;;;;;9.80;6.00;;;;;;;7.49;77.34;103366.91;4994337;28;20064;-87
2023/12/18 00:28:26;;;;;;;7.55;5.07;;;;;;;7.41;77.38;103353.13;5000292;28;20046;-86
2023/12/18 00:30:52;;;;;;;7.97;5.38;;;;;;;7.37;77.55;103334.44;4979394;28;20049;-85
2023/12/18 00:33:18;;;;;;;8.32;5.45;;;;;;;7.44;77.41;103342.13;4972973;28;20038;-85
2023/12/18 00:35:43;;;;;;;7.88;5.53;;;;;;;7.20;77.26;103304.94;4970464;28;20085;-86
2023/12/18 00:38:09;;;;;;;6.90;5.25;;;;;;;7.24;77.07;103308.75;4989343;28;20111;-85
2023/12/18 00:40:34;;;;;;;8.35;5.60;;;;;;;7.20;77.21;103298.81;4985920;28;20029;-86
2023/12/18 00:43:00;;;;;;;8.30;5.75;;;;;;;7.00;77.09;103265.44;4988922;28;20038;-86
2023/12/18 00:45:26;;;;;;;9.52;6.10;;;;;;;7.34;77.29;103328.13;4985438;28;20026;-86
2023/12/18 00:47:52;;;;;;;8.10;5.55;;;;;;;7.43;77.59;103358.47;4978671;28;20034;-85
2023/12/18 00:50:18;;;;;;;8.48;5.47;;;;;;;7.04;77.40;103273.75;4983594;28;20613;-86
2023/12/18 00:52:44;;;;;;;8.43;5.68;;;;;;;7.13;77.38;103287.75;4985032;28;20049;-87
2023/12/18 00:55:09;;;;;;;8.63;5.60;;;;;;;7.34;77.44;103330.75;4983161;28;20497;-87
2023/12/18 00:57:35;;;;;;;8.32;5.13;;;;;;;7.14;77.45;103288.66;4986952;28;20042;-87
2023/12/18 01:00:01;;;;;;;8.18;5.75;;;;;;;7.42;77.40;103335.81;4984052;28;20037;-86
2023/12/18 01:02:27;;;;;;;9.35;5.47;;;;;;;7.13;77.58;103284.19;4974142;28;20026;-86
2023/12/18 01:04:53;;;;;;;9.43;6.05;;;;;;;7.19;77.60;103286.56;5001788;28;20027;-87
2023/12/18 01:07:19;;;;;;;7.97;5.68;;;;;;;7.34;77.17;103322.00;5001764;28;20031;-87
2023/12/18 01:09:45;;;;;;;7.50;5.47;;;;;;;7.10;77.61;103284.81;4976991;28;20041;-87
2023/12/18 01:12:10;;;;;;;8.20;5.82;;;;;;;7.41;77.53;103336.56;4979387;28;20050;-86
2023/12/18 01:14:36;;;;;;;9.15;5.85;;;;;;;7.31;77.66;103313.88;4985450;28;20049;-86
2023/12/18 01:17:02;;;;;;;9.07;5.78;;;;;;;7.09;77.43;103279.44;4989509;28;20034;-85
2023/12/18 01:19:29;;;;;;;7.68;5.57;;;;;;;7.07;77.74;103265.34;4985184;28;20077;-85
2023/12/18 01:21:55;;;;;;;8.15;5.85;;;;;;;7.26;77.66;103281.25;4981001;28;20031;-87
2023/12/18 01:24:21;;;;;;;7.82;5.43;;;;;;;6.92;77.70;103223.03;4988656;28;20036;-87
2023/12/18 01:26:46;;;;;;;8.38;5.45;;;;;;;7.17;77.61;103257.78;4990616;28;20125;-87
2023/12/18 01:29:12;;;;;;;8.27;5.43;;;;;;;7.40;77.72;103285.34;4985250;28;20034;-87
2023/12/18 01:31:38;;;;;;;9.27;5.90;;;;;;;7.18;77.44;103249.25;4983018;28;20042;-86
2023/12/18 01:34:04;;;;;;;8.20;6.05;;;;;;;7.29;77.43;103260.81;4977861;28;20026;-85
2023/12/18 01:36:30;;;;;;;8.57;5.95;;;;;;;6.90;77.47;103193.38;4989543;28;20034;-86
2023/12/18 01:38:55;;;;;;;9.48;6.47;;;;;;;6.92;77.47;103198.00;4978438;28;20029;-86
2023/12/18 01:41:21;;;;;;;9.13;5.88;;;;;;;7.09;77.60;103231.00;4972119;28;20453;-86
2023/12/18 01:43:47;;;;;;;9.32;5.95;;;;;;;7.12;77.49;103235.59;4989741;28;20045;-86
2023/12/18 01:46:21;;;;;;;9.05;5.93;;;;;;;7.37;77.47;103272.03;4990918;28;20041;-85
2023/12/18 01:48:47;;;;;;;9.75;6.40;;;;;;;6.86;77.73;103186.03;4967957;28;20038;-85
2023/12/18 01:51:13;;;;;;;8.40;6.05;;;;;;;7.04;77.53;103213.06;4969380;28;20520;-85
2023/12/18 01:53:50;;;;;;;9.60;5.95;;;;;;;7.31;77.62;103251.50;4987973;28;20070;-84
2023/12/18 01:56:16;;;;;;;;;;;;;;;7.36;77.38;103263.28;4982474;28;20026;-85
2023/12/18 01:58:43;;;;;;;9.43;5.88;;;;;;;7.33;77.57;103269.09;4987461;28;19933;-85
2023/12/18 02:01:09;;;;;;;9.75;6.13;;;;;;;7.26;77.71;103250.06;4990564;28;20057;-86
2023/12/18 02:03:35;;;;;;;9.48;6.40;;;;;;;7.01;77.88;103197.16;4982264;28;20039;-86
2023/12/18 02:06:03;;;;;;;9.10;5.97;;;;;;;6.93;77.71;103193.72;4985815;28;20030;-86
2023/12/18 02:08:32;;;;;;;9.63;6.15;;;;;;;7.27;77.57;103247.63;4985828;28;20117;-87
2023/12/18 02:10:59;;;;;;;9.27;5.80;;;;;;;6.94;77.43;103190.34;4969278;28;20082;-87
2023/12/18 02:13:25;;;;;;;9.27;6.25;;;;;;;6.75;77.49;103160.56;4973083;28;20037;-87
2023/12/18 02:15:50;;;;;;;8.82;6.22;;;;;;;7.01;77.86;103213.66;4980859;28;20027;-85
2023/12/18 02:18:16;;;;;;;8.98;6.07;;;;;;;7.01;77.38;103212.75;4988984;28;20066;-86
2023/12/18 02:20:42;;;;;;;9.55;6.10;;;;;;;7.29;77.57;103260.81;4992388;28;20567;-86
2023/12/18 02:23:09;;;;;;;10.15;6.45;;;;;;;6.96;77.19;103204.44;4987211;28;20041;-86
2023/12/18 02:25:34;;;;;;;10.35;6.20;;;;;;;7.08;77.38;103215.25;4991514;28;20089;-85
2023/12/18 02:28:01;;;;;;;9.68;5.70;;;;;;;6.88;77.37;103172.47;4985252;28;20030;-85
2023/12/18 02:30:26;;;;;;;;;;;;;;;7.30;77.42;103257.44;4986648;28;20133;-86
2023/12/18 02:32:52;;;;;;;9.95;6.00;;;;;;;7.19;77.48;103234.56;4974417;28;20000;-86
2023/12/18 02:35:18;;;;;;;10.35;6.28;;;;;;;7.16;77.38;103229.06;4987578;28;20117;-85
2023/12/18 02:37:43;;;;;;;10.00;6.63;;;;;;;7.25;77.52;103254.34;4992276;28;20038;-85
2023/12/18 02:40:09;;;;;;;8.60;5.80;;;;;;;6.98;77.75;103222.78;4990724;28;20031;-87
2023/12/18 02:42:35;;;;;;;11.25;6.00;;;;;;;7.27;77.52;103262.31;4991405;28;20031;-85
2023/12/18 02:45:02;;;;;;;10.13;6.28;;;;;;;7.22;77.70;103266.13;4991777;28;20031;-85
2023/12/18 02:47:28;;;;;;;8.57;5.90;;;;;;;7.18;77.47;103250.94;4992170;28;20030;-84
2023/12/18 02:49:54;;;;;;;9.77;6.20;;;;;;;7.17;77.71;103269.88;4974337;28;20049;-85
2023/12/18 02:52:19;;;;;;;9.27;5.95;;;;;;;6.92;77.62;103218.78;4991175;28;20536;-84
2023/12/18 02:54:45;;;;;;;9.15;5.93;;;;;;;7.16;77.23;103266.34;4990319;28;20113;-86
2023/12/18 02:57:11;;;;;;;9.20;6.00;;;;;;;6.88;77.82;103208.81;4990944;28;20030;-85
2023/12/18 02:59:37;;;;;;;9.75;6.32;;;;;;;7.11;77.76;103252.88;4991553;28;20034;-85
2023/12/18 03:02:03;;;;;;;10.13;6.47;;;;;;;7.22;77.81;103268.72;4993227;28;20027;-85
2023/12/18 03:04:29;;;;;;;9.70;6.28;;;;;;;7.15;77.59;103241.13;4989703;28;20046;-85
2023/12/18 03:06:54;;;;;;;8.77;5.97;;;;;;;7.24;77.72;103255.13;4987055;28;20069;-86
2023/12/18 03:09:20;;;;;;;9.40;6.05;;;;;;;6.86;77.66;103189.56;4990512;28;20164;-86
2023/12/18 03:11:47;;;;;;;8.68;5.88;;;;;;;7.21;77.83;103249.56;4989571;28;20690;-86
2023/12/18 03:14:13;;;;;;;9.75;6.32;;;;;;;7.22;77.60;103242.72;4962260;28;20034;-86
2023/12/18 03:16:38;;;;;;;9.10;6.13;;;;;;;7.20;77.31;103245.16;4959363;28;20513;-87
2023/12/18 03:19:04;;;;;;;8.43;5.82;;;;;;;7.07;77.32;103222.13;4974155;28;20058;-87
2023/12/18 03:21:32;;;;;;;10.05;5.72;;;;;;;6.92;77.49;103186.69;4988437;28;20030;-84
2023/12/18 03:23:58;;;;;;;9.05;5.93;;;;;;;7.20;77.57;103231.25;4981925;28;20555;-86
2023/12/18 03:26:24;;;;;;;8.98;5.78;;;;;;;6.81;77.56;103166.44;4986134;28;20042;-85
2023/12/18 03:28:50;;;;;;;8.38;5.78;;;;;;;6.86;77.62;103163.59;4978162;28;20058;-86
2023/12/18 03:31:16;;;;;;;10.35;5.95;;;;;;;7.16;77.81;103224.78;4982216;28;20022;-86
2023/12/18 03:33:42;;;;;;;8.90;5.82;;;;;;;7.03;77.46;103196.56;4990087;28;20524;-86
2023/12/18 03:36:08;;;;;;;9.95;6.32;;;;;;;7.16;77.76;103236.88;4977038;28;20034;-86
2023/12/18 03:38:34;;;;;;;10.82;5.95;;;;;;;7.18;77.81;103211.97;4986324;28;20121;-86
2023/12/18 03:41:00;;;;;;;7.97;5.50;;;;;;;6.63;77.42;103116.97;4987962;28;20165;-86
2023/12/18 03:43:26;;;;;;;9.10;5.70;;;;;;;7.03;77.43;103188.78;4989885;28;20156;-86
2023/12/18 03:45:53;;;;;;;;;;;;;;;7.19;77.85;103203.38;4982820;28;20031;-86
2023/12/18 03:48:19;;;;;;;9.27;5.93;;;;;;;7.03;77.35;103195.66;4982061;28;19977;-86
2023/12/18 03:50:45;;;;;;;9.40;5.85;;;;;;;6.84;77.60;103166.78;4984923;28;20038;-86
2023/12/18 03:53:11;;;;;;;9.23;6.03;;;;;;;6.76;77.93;103152.94;4985890;28;20121;-86
2023/12/18 03:55:38;;;;;;;8.82;6.03;;;;;;;7.14;77.61;103221.09;4994439;28;20497;-86
2023/12/18 03:58:04;;;;;;;10.35;6.07;;;;;;;7.08;77.57;103212.66;4968461;28;20030;-87
2023/12/18 04:00:29;;;;;;;8.48;5.85;;;;;;;6.79;77.67;103163.66;4972548;28;20049;-87
2023/12/18 04:02:55;;;;;;;9.23;5.90;;;;;;;6.98;77.64;103191.63;4985794;28;20815;-85
2023/12/18 04:05:23;;;;;;;9.52;6.15;;;;;;;7.00;77.61;103190.09;4985151;28;20031;-85
2023/12/18 04:07:49;;;;;;;9.32;5.75;;;;;;;6.95;77.52;103194.81;4987137;28;20030;-86
2023/12/18 04:10:15;;;;;;;9.13;5.85;;;;;;;6.73;77.77;103152.59;4982648;28;20458;-86
2023/12/18 04:12:41;;;;;;;8.35;5.78;;;;;;;6.74;77.47;103154.47;4968986;28;20065;-84
2023/12/18 04:15:07;;;;;;;9.02;6.20;;;;;;;6.92;77.67;103182.44;4987699;28;20045;-84
2023/12/18 04:17:32;;;;;;;;;;;;;;;7.13;77.63;103225.38;4990113;28;20042;-86
2023/12/18 04:19:58;;;;;;;8.32;5.53;;;;;;;6.84;77.67;103171.97;4991038;28;20373;-87
2023/12/18 04:22:24;;;;;;;8.32;5.57;;;;;;;7.00;78.05;103210.91;4988453;28;20038;-87
2023/12/18 04:24:49;;;;;;;11.10;6.68;;;;;;;6.70;77.46;103153.19;4989035;28;20038;-87
2023/12/18 04:27:15;;;;;;;9.95;5.90;;;;;;;7.12;77.79;103227.81;4988090;28;20042;-87
2023/12/18 04:29:41;;;;;;;8.50;5.60;;;;;;;6.73;77.72;103169.13;4990134;28;20047;-87
2023/12/18 04:32:06;;;;;;;8.48;5.57;;;;;;;7.00;77.63;103203.09;4964137;28;20133;-86
2023/12/18 04:34:32;;;;;;;9.00;5.80;;;;;;;7.07;77.75;103219.53;4990187;28;20117;-87
2023/12/18 04:36:59;;;;;;;9.45;6.00;;;;;;;6.94;77.32;103195.56;4989887;28;20493;-87
2023/12/18 04:39:25;;;;;;;9.38;5.90;;;;;;;6.77;77.49;103166.84;4989254;28;20505;-87
2023/12/18 04:41:51;;;;;;;8.32;5.65;;;;;;;6.95;77.70;103196.50;4964355;28;20102;-87
2023/12/18 04:44:16;;;;;;;9.52;5.65;;;;;;;6.74;77.61;103164.84;4982385;28;20038;-86
2023/12/18 04:46:42;;;;;;;9.30;6.00;;;;;;;6.82;77.58;103178.69;4985132;28;20033;-88
2023/12/18 04:49:09;;;;;;;8.65;5.78;;;;;;;6.68;77.72;103149.53;4981487;28;20078;-87
2023/12/18 04:51:35;;;;;;;8.93;6.00;;;;;;;6.79;77.87;103174.03;4979743;28;20424;-89
2023/12/18 04:54:01;;;;;;;;;;;;;;;7.08;77.58;103228.22;4974384;28;20552;-88
2023/12/18 04:56:26;;;;;;;8.20;5.50;;;;;;;6.90;77.63;103201.16;4981342;28;19970;-89
2023/12/18 04:58:52;;;;;;;8.82;5.70;;;;;;;6.92;77.93;103199.66;4972625;28;20042;-88
2023/12/18 05:01:18;;;;;;;8.45;5.43;;;;;;;6.84;77.71;103197.94;4971906;28;20066;-88
2023/12/18 05:03:43;;;;;;;9.10;5.97;;;;;;;6.66;77.84;103153.63;4990017;28;20334;-86
2023/12/18 05:06:19;;;;;;;7.47;5.13;;;;;;;7.03;77.36;103212.16;4988641;28;20034;-89
2023/12/18 05:08:46;;;;;;;9.38;6.05;;;;;;;6.55;77.72;103138.56;4989806;28;20050;-86
2023/12/18 05:11:11;;;;;;;8.73;5.88;;;;;;;6.48;77.41;103123.09;4972242;28;20044;-85
2023/12/18 05:13:37;;;;;;;8.95;6.00;;;;;;;6.72;77.97;103174.16;4983216;28;20412;-85
2023/12/18 05:16:03;;;;;;;8.95;5.75;;;;;;;6.72;77.53;103175.06;4987946;28;20045;-86
2023/12/18 05:18:29;;;;;;;9.80;6.22;;;;;;;6.70;77.59;103170.47;4966624;28;20026;-86
2023/12/18 05:20:57;;;;;;;8.45;5.88;;;;;;;7.02;77.51;103212.91;4988313;28;20495;-86
2023/12/18 05:23:24;;;;;;;7.50;5.35;;;;;;;7.00;77.54;103213.50;4996541;28;20041;-86
2023/12/18 05:25:49;;;;;;;;;;;;;;;7.02;77.82;103211.97;4971455;28;20041;-86
2023/12/18 05:28:15;;;;;;;8.20;5.70;;;;;;;6.89;77.56;103194.16;4968596;28;20424;-86
2023/12/18 05:30:41;;;;;;;8.32;5.75;;;;;;;6.95;77.51;103217.28;4984368;28;20069;-87
2023/12/18 05:33:07;;;;;;;8.05;5.65;;;;;;;6.88;77.60;103197.53;4966111;28;20521;-86
2023/12/18 05:35:33;;;;;;;7.22;5.28;;;;;;;6.74;77.55;103164.84;4976613;28;20039;-86
2023/12/18 05:37:58;;;;;;;9.73;5.90;;;;;;;6.81;77.67;103177.72;4965741;28;20116;-85
2023/12/18 05:40:24;;;;;;;8.68;5.72;;;;;;;6.73;77.69;103158.75;4973286;28;20125;-86
2023/12/18 05:42:50;;;;;;;7.65;5.57;;;;;;;6.48;77.40;103124.03;4972342;28;20034;-85
2023/12/18 05:45:16;;;;;;;7.55;5.43;;;;;;;6.77;77.59;103170.38;4983962;28;20078;-87
2023/12/18 05:47:41;;;;;;;8.77;5.72;;;;;;;6.69;77.54;103150.47;4968868;28;20424;-87
2023/12/18 05:50:08;;;;;;;8.18;5.78;;;;;;;6.69;77.34;103158.25;4959055;28;20042;-87
2023/12/18 05:52:33;;;;;;;8.65;5.55;;;;;;;6.69;77.62;103163.44;4981531;28;20516;-86
2023/12/18 05:54:59;;;;;;;9.10;5.18;;;;;;;6.46;77.47;103112.53;4982961;28;20031;-87
2023/12/18 05:57:25;;;;;;;7.97;5.50;;;;;;;6.59;77.71;103137.25;4979017;28;20544;-86
2023/12/18 05:59:51;;;;;;;9.13;6.07;;;;;;;6.73;77.78;103158.75;4972251;28;20034;-87
2023/12/18 06:02:16;;;;;;;8.02;5.63;;;;;;;6.51;77.64;103123.41;4979138;28;20085;-88
2023/12/18 06:04:43;;;;;;;7.95;5.05;;;;;;;6.82;77.44;103173.47;4976363;28;20026;-85
2023/12/18 06:07:10;;;;;;;7.57;5.45;;;;;;;6.41;77.52;103103.31;4983138;28;20117;-86
2023/12/18 06:09:36;;;;;;;9.23;6.18;;;;;;;6.66;77.46;103142.31;4986230;28;20027;-86
2023/12/18 06:12:02;;;;;;;8.77;5.43;;;;;;;6.64;77.70;103149.94;4987851;28;20045;-86
2023/12/18 06:14:27;;;;;;;8.27;5.30;;;;;;;6.43;77.64;103122.56;4968481;28;20109;-86
2023/12/18 06:16:53;;;;;;;7.25;5.32;;;;;;;6.82;77.48;103194.25;4994476;28;20030;-87
2023/12/18 06:19:19;;;;;;;8.50;5.90;;;;;;;6.77;77.82;103185.94;4981639;28;20035;-87
2023/12/18 06:21:44;;;;;;;8.70;6.10;;;;;;;6.90;77.60;103212.50;4959437;28;20042;-87
2023/12/18 06:24:10;;;;;;;9.18;6.07;;;;;;;6.79;77.41;103192.22;4985112;28;20030;-88
2023/12/18 06:26:36;;;;;;;8.63;5.40;;;;;;;6.60;77.61;103165.03;4992973;28;20110;-88
2023/12/18 06:29:01;;;;;;;8.70;6.03;;;;;;;6.78;77.77;103192.09;4974151;28;20101;-87
2023/12/18 06:31:27;;;;;;;8.95;5.85;;;;;;;6.80;77.62;103181.09;4991903;28;20516;-88
2023/12/18 06:33:53;;;;;;;8.57;5.78;;;;;;;6.70;77.63;103173.97;4981799;28;20046;-88
2023/12/18 06:36:20;;;;;;;9.43;5.57;;;;;;;6.48;77.66;103133.50;4982214;28;20036;-89
2023/12/18 06:38:46;;;;;;;8.55;5.80;;;;;;;6.73;77.71;103183.75;4972806;28;20132;-88
2023/12/18 06:41:12;;;;;;;8.95;5.47;;;;;;;6.66;77.64;103169.22;4990883;28;20073;-86
2023/12/18 06:43:39;;;;;;;8.88;5.75;;;;;;;6.76;77.76;103180.59;4987683;28;20047;-86
2023/12/18 06:46:05;;;;;;;8.55;5.60;;;;;;;6.78;77.50;103187.81;4984271;28;20057;-86
2023/12/18 06:48:32;;;;;;;7.50;5.53;;;;;;;6.87;77.60;103212.16;4979064;28;20026;-86
2023/12/18 06:50:58;;;;;;;8.18;5.60;;;;;;;6.86;77.60;103209.41;4984802;28;20030;-87
2023/12/18 06:53:25;;;;;;;8.52;5.68;;;;;;;6.86;77.66;103202.53;4986610;28;20129;-87
2023/12/18 06:55:51;;;;;;;10.45;6.43;;;;;;;6.69;77.50;103177.34;4975115;28;20035;-88
2023/12/18 06:58:17;;;;;;;9.07;5.80;;;;;;;6.56;77.25;103148.22;4975929;28;20421;-87
2023/12/18 07:00:46;;;;;;;9.73;6.28;;;;;;;6.82;77.52;103196.84;4975417;28;20125;-87
2023/12/18 07:03:11;;;;;;;9.95;6.68;;;;;;;6.82;77.31;103184.78;4979122;28;20102;-86
2023/12/18 07:05:37;;;;;;;9.60;6.30;;;;;;;6.82;77.61;103189.97;4974316;28;20030;-87
2023/12/18 07:08:03;;;;;;;9.80;6.65;;;;;;;6.35;77.23;103117.31;4968553;28;20066;-87
2023/12/18 07:10:29;;;;;;;10.52;6.90;;;;;;;6.45;77.46;103133.13;4968195;28;20023;-86
2023/12/18 07:12:56;;;;;;;10.85;6.60;;;;;;;6.63;77.67;103161.09;4979394;28;20053;-89
2023/12/18 07:15:23;;;;;;;9.57;6.30;;;;;;;6.46;77.57;103135.00;4972609;28;20527;-87
2023/12/18 07:18:13;;;;;;;9.82;6.50;;;;;;;6.75;77.52;103169.28;4979616;28;20413;-88
2023/12/18 07:20:41;;;;;;;10.73;6.60;;;;;;;6.42;77.66;103112.97;4977134;28;20043;-87
2023/12/18 07:23:36;;;;;;;9.32;6.32;;;;;;;6.80;77.58;103181.09;4971951;28;20473;-84
2023/12/18 07:29:38;;;;;;;10.45;6.80;;;;;;;6.29;77.36;103084.75;4927919;29;20090;-86
2023/12/18 07:32:04;;;;;;;11.25;6.90;;;;;;;6.34;77.60;103089.53;4914830;29;20040;-87
2023/12/18 07:34:29;;;;;;;;;;;;;;;6.80;77.54;103169.78;4961231;28;20743;-87
2023/12/18 07:36:55;;;;;;;9.52;6.10;;;;;;;6.05;77.44;103041.53;4980688;28;19926;-84
2023/12/18 07:39:21;;;;;;;9.55;6.47;;;;;;;6.31;77.50;103079.75;4985451;28;20578;-85
2023/12/18 07:41:47;;;;;;;8.82;6.07;;;;;;;6.68;77.35;103138.22;4986864;28;20031;-87
2023/12/18 07:44:33;;;;;;;10.52;6.72;;;;;;;6.45;77.43;103100.31;4989266;28;20650;-87
2023/12/18 07:47:40;;;;;;;9.73;6.35;;;;;;;6.80;77.65;103152.53;4970785;28;20031;-86
2023/12/18 07:50:15;;;;;;;10.02;6.30;;;;;;;6.46;77.36;103088.28;5001204;28;20037;-86
2023/12/18 07:53:36;;;;;;;10.25;6.82;;;;;;;6.81;77.50;103151.75;4976012;28;20061;-86
2023/12/18 07:59:43;;;;;;;8.35;5.80;;;;;;;6.19;77.47;103045.59;4916300;28;20530;-85
2023/12/18 08:02:17;;;;;;;10.45;6.47;;;;;;;6.48;77.37;103098.06;4986876;28;20030;-86
2023/12/18 08:05:31;;;;;;;10.88;7.28;;;;;;;6.78;77.74;103148.84;4958102;28;20472;-87
2023/12/18 08:08:25;;;;;;;10.27;6.50;;;;;;;6.78;77.60;103143.66;4978632;28;20125;-87
2023/12/18 08:10:51;;;;;;;10.25;6.80;;;;;;;6.62;77.37;103117.69;4973215;28;20037;-85
2023/12/18 08:13:17;;;;;;;11.88;7.15;;;;;;;6.57;77.25;103105.00;4963451;28;20042;-86
2023/12/18 08:19:26;;;;;;;10.93;6.65;;;;;;;6.82;77.37;103151.03;4977629;28;20060;-84
2023/12/18 08:21:53;;;;;;;;;;;;;;;6.81;77.43;103149.16;4973239;28;20039;-85
2023/12/18 08:24:20;;;;;;;;;;;;;;;6.79;77.42;103145.47;4972690;28;20010;-85
2023/12/18 08:26:48;;;;;;;11.43;7.00;;;;;;;6.32;77.63;103063.41;4977073;28;19918;-88
2023/12/18 08:29:48;;;;;;;;;;;;;;;;;;;;;
2023/12/18 08:35:54;;;;;;;11.00;7.05;;;;;;;6.61;77.54;103108.09;4977566;28;20184;-86
2023/12/18 08:38:20;;;;;;;12.23;8.38;;;;;;;6.52;77.69;103084.66;4968570;28;20086;-87
2023/12/18 08:40:57;;;;;;;10.88;6.85;;;;;;;6.22;77.39;103024.25;4974344;28;20463;-85
2023/12/18 08:43:44;;;;;;;;;;;;;;;6.80;77.48;103121.38;4963519;28;20046;-85
2023/12/18 08:49:53;;;;;;;11.73;7.38;;;;;;;6.78;77.46;103124.56;4966952;28;20070;-85
2023/12/18 08:52:21;;;;;;;;;;;;;;;6.79;77.42;103123.78;4960421;28;20110;-84
2023/12/18 08:55:23;;;;;;;11.10;6.97;;;;;;;6.77;77.58;103118.41;4963957;28;19918;-86
2023/12/18 08:58:37;;;;;;;11.20;6.93;;;;;;;6.77;77.61;103101.94;4967153;28;20046;-84
2023/12/18 09:01:15;;;;;;;12.73;7.78;;;;;;;6.56;77.80;103072.94;4962807;28;20070;-84
2023/12/18 09:03:41;;;;;;;13.20;7.90;;;;;;;6.49;77.52;103058.34;4950777;28;20043;-85
2023/12/18 09:06:07;;;;;;;11.40;7.45;;;;;;;6.59;77.39;103072.34;4946373;28;20122;-86
2023/12/18 09:08:39;;;;;;;11.55;7.07;;;;;;;6.78;77.59;103096.00;4963069;28;20045;-85
2023/12/18 09:18:05;;;;;;;13.88;7.82;;;;;;;6.79;77.52;103096.13;4884576;29;20048;-85
2023/12/18 09:21:10;;;;;;;12.43;7.97;;;;;;;6.78;77.63;103096.00;4869484;29;20168;-85
2023/12/18 09:23:39;;;;;;;11.85;7.30;;;;;;;6.46;77.57;103025.97;4892166;29;20149;-86
2023/12/18 09:26:10;;;;;;;12.68;7.45;;;;;;;6.79;77.46;103072.75;4964610;28;20038;-86
2023/12/18 09:28:35;;;;;;;12.32;7.20;;;;;;;6.49;77.68;103014.22;4976497;28;20038;-86
2023/12/18 09:31:05;;;;;;;10.85;6.97;;;;;;;6.67;77.39;103042.91;4985834;28;20035;-84
2023/12/18 09:33:33;;;;;;;11.60;7.03;;;;;;;6.80;77.96;103061.63;4978657;28;20069;-86
2023/12/18 09:35:59;;;;;;;10.80;6.75;;;;;;;6.65;77.49;103039.25;4976997;28;20038;-88
2023/12/18 09:38:25;;;;;;;11.45;7.30;;;;;;;6.71;77.58;103035.63;4963292;28;20046;-86
2023/12/18 09:40:51;;;;;;;11.15;7.10;;;;;;;6.40;77.68;102988.97;4971403;28;20027;-84
2023/12/18 09:43:17;;;;;;;14.15;7.82;;;;;;;6.46;77.46;102997.44;4989008;28;20041;-84
2023/12/18 09:45:48;;;;;;;11.77;7.60;;;;;;;6.08;77.51;102917.34;4989314;28;20034;-84
2023/12/18 09:48:24;;;;;;;10.60;7.10;;;;;;;6.51;77.35;102991.94;4987564;28;20035;-84
2023/12/18 09:50:50;;;;;;;11.50;7.28;;;;;;;6.36;77.68;102966.97;4979220;28;20058;-84
2023/12/18 09:53:21;;;;;;;11.75;7.63;;;;;;;6.77;77.60;103040.50;4988064;28;20489;-84
2023/12/18 09:55:54;;;;;;;12.02;7.50;;;;;;;6.34;77.67;102959.78;4989139;28;20053;-84
2023/12/18 09:58:21;;;;;;;12.27;7.28;;;;;;;6.34;77.50;102947.72;4988775;28;20037;-84
2023/12/18 10:00:47;;;;;;;13.07;7.60;;;;;;;6.39;77.80;102962.13;4988973;28;20063;-84
2023/12/18 10:03:16;;;;;;;11.70;7.28;;;;;;;6.56;77.93;102989.88;4989283;28;20018;-84
2023/12/18 10:05:42;;;;;;;10.75;7.05;;;;;;;6.08;77.68;102891.41;4990116;28;20043;-83
2023/12/18 10:08:09;;;;;;;11.27;7.43;;;;;;;6.55;77.56;102976.72;4991775;28;20029;-85
2023/12/18 10:10:35;;;;;;;10.55;7.13;;;;;;;6.41;77.85;102949.28;4991792;28;20041;-85
2023/12/18 10:13:06;;;;;;;10.60;7.03;;;;;;;6.36;77.84;102937.50;4990830;28;20022;-85
2023/12/18 10:15:34;;;;;;;12.40;7.15;;;;;;;6.33;77.84;102919.94;4992094;28;20121;-85
2023/12/18 10:18:01;;;;;;;13.65;7.43;;;;;;;6.15;77.76;102872.19;4989413;28;20070;-85
2023/12/18 10:20:28;;;;;;;12.60;7.68;;;;;;;6.75;77.60;102984.91;4976005;28;20026;-86
2023/12/18 10:22:54;;;;;;;11.38;6.85;;;;;;;6.40;77.40;102903.34;4990679;28;20101;-86
2023/12/18 10:25:22;;;;;;;11.48;7.47;;;;;;;6.29;78.06;102891.84;4992224;28;20113;-85
2023/12/18 10:27:48;;;;;;;11.80;7.80;;;;;;;6.37;77.57;102890.97;4991383;28;20018;-86
2023/12/18 10:30:14;;;;;;;11.38;7.60;;;;;;;6.27;77.43;102876.09;4986277;28;20413;-87
2023/12/18 10:32:40;;;;;;;12.68;7.57;;;;;;;6.68;77.75;102949.59;4992704;28;20049;-86
2023/12/18 10:35:06;;;;;;;12.05;7.55;;;;;;;6.08;77.69;102839.50;4991228;28;20088;-85
2023/12/18 10:37:32;;;;;;;12.20;7.30;;;;;;;6.59;77.53;102916.56;4993215;28;20482;-86
2023/12/18 10:40:03;;;;;;;11.43;7.28;;;;;;;6.56;77.64;102914.56;4984061;28;20134;-86
2023/12/18 10:42:36;;;;;;;12.85;7.60;;;;;;;6.78;77.74;102945.38;4991049;28;20015;-85
2023/12/18 10:45:06;;;;;;;10.10;6.72;;;;;;;6.57;77.69;102913.81;4991606;28;20030;-85
2023/12/18 10:47:35;;;;;;;11.98;7.43;;;;;;;6.06;77.80;102843.63;4992926;28;20058;-87
2023/12/18 10:50:04;;;;;;;12.02;7.35;;;;;;;6.70;77.82;102949.75;4991175;28;20069;-86
2023/12/18 10:52:31;;;;;;;10.55;7.05;;;;;;;6.45;77.81;102894.34;4992260;28;20034;-86
2023/12/18 10:55:04;;;;;;;11.90;7.30;;;;;;;6.62;77.86;102914.28;4992630;28;20037;-86
2023/12/18 10:57:29;;;;;;;12.95;7.72;;;;;;;6.89;77.71;102960.38;4990035;28;20142;-87
2023/12/18 10:59:57;;;;;;;11.82;7.25;;;;;;;6.85;77.70;102950.44;4975059;28;20505;-86
2023/12/18 11:02:26;;;;;;;12.32;7.88;;;;;;;6.68;77.89;102923.63;4991538;28;20035;-87
2023/12/18 11:04:54;;;;;;;11.48;7.20;;;;;;;6.34;77.50;102851.69;4990721;28;20034;-85
2023/12/18 11:07:20;;;;;;;11.02;7.07;;;;;;;6.57;77.76;102892.13;4990603;28;20581;-85
2023/12/18 11:09:47;;;;;;;12.45;7.93;;;;;;;6.47;77.83;102874.66;4990231;28;20121;-86
2023/12/18 11:12:14;;;;;;;11.68;7.45;;;;;;;6.81;77.68;102931.00;4991310;28;20030;-87
2023/12/18 11:14:59;;;;;;;12.75;7.60;;;;;;;6.89;77.67;102940.50;4974997;28;20034;-87
2023/12/18 11:17:46;;;;;;;12.68;7.55;;;;;;;6.88;77.81;102924.78;4991379;28;20085;-85
2023/12/18 11:20:19;;;;;;;12.77;7.68;;;;;;;6.87;77.79;102936.84;4982252;28;20106;-85
2023/12/18 11:22:46;;;;;;;13.10;7.95;;;;;;;6.89;77.70;102927.53;4991024;28;20501;-85
2023/12/18 11:25:12;;;;;;;11.85;7.60;;;;;;;6.75;77.65;102896.59;4975182;28;20528;-85
2023/12/18 11:27:43;;;;;;;12.27;7.45;;;;;;;6.85;77.86;102919.25;4974447;28;20620;-87
2023/12/18 11:30:28;;;;;;;13.15;7.78;;;;;;;6.80;77.88;102911.00;4991676;28;20501;-85
2023/12/18 11:32:53;;;;;;;12.80;7.82;;;;;;;6.81;77.72;102896.34;4991019;28;20026;-83
2023/12/18 11:35:29;;;;;;;10.27;7.10;;;;;;;6.83;77.68;102894.81;4991314;28;20041;-83
2023/12/18 11:38:09;;;;;;;12.02;7.50;;;;;;;6.82;77.63;102888.72;4963604;28;20113;-86
2023/12/18 11:40:36;;;;;;;11.32;7.53;;;;;;;6.75;77.52;102869.72;4989886;28;20034;-84
2023/12/18 11:43:03;;;;;;;14.52;8.23;;;;;;;6.77;77.34;102870.81;4990752;28;20113;-85
2023/12/18 11:45:29;;;;;;;11.95;7.88;;;;;;;6.92;77.49;102895.75;4990182;28;20030;-85
2023/12/18 11:47:59;;;;;;;13.35;8.07;;;;;;;6.81;77.42;102867.78;4991084;28;20030;-86
2023/12/18 11:50:26;;;;;;;11.57;7.20;;;;;;;6.91;77.30;102880.94;4991906;28;20121;-87
2023/12/18 11:52:55;;;;;;;12.18;7.82;;;;;;;6.68;77.43;102843.13;4989983;28;20038;-86
2023/12/18 11:55:40;;;;;;;12.13;7.47;;;;;;;6.62;77.36;102831.19;4972568;28;20113;-88
2023/12/18 11:58:07;;;;;;;12.43;7.60;;;;;;;6.98;77.71;102901.56;4968990;28;20034;-88
2023/12/18 12:00:36;;;;;;;12.23;7.60;;;;;;;6.49;77.36;102806.56;4979619;28;20034;-87
2023/12/18 12:03:04;;;;;;;11.65;7.43;;;;;;;6.28;77.50;102757.66;4984837;28;20027;-87
2023/12/18 12:05:31;;;;;;;13.98;7.78;;;;;;;6.31;77.43;102757.97;4974765;28;20456;-88